Elliston Post Office, Australia
Current Conditions -  °F | °C
As of 1:00 AM on Tuesday 25 Nov 2014 (Local Time) from YCDU Reporting Station
Broken Clouds Broken Clouds  
Wind Chill: 61°   Ceiling: 4200
Heat Index: 61°   Visibility: 6mi
Dew Point: 43°   Wind: 8mph
Humidity: 52%   Direction: 180°S
Pressure: 30.15"   Gusts: NA
Location:  33.65°S, 134.88°E
Report Text: YCDU 241500Z AUTO 18007KT 9999 // BKN042 16/06 Q1021
Loading
Personal Weather Stations






























Interactive Weather Map New forecast layout! Learn more

10-Day Weather Forecast

Advertisements
Track Severe Weather on mobile